Terminal Aerodrome Forecast
Issued by NWS Brownsville, TX

Home | Current Version | Previous Version | Text Only | Print | Product List | Glossary On
Versions: 1 2 3 4 5 6 7 8 9 10 11 12 13 14 15 16 17 18 19 20 21 22
000
FTUS44 KBRO 251128
TAFBRO
TAF
KBRO 251128Z 2512/2612 12008KT 5SM BR OVC012
     FM251400 16013KT P6SM BKN020
     FM251700 14008KT P6SM BKN040
     FM260300 10003KT 5SM BR BKN015=

USA.gov is the U.S. government's official web portal to all federal, state and local government web resources and services.